Wetterdaten: Woche 25.10.10 - 31.10.10 (KW43)
Datum Zeit Temperatur Luftfeuchte Luftdruck Niederschlag Windrichtung Sonnenschein Solar Wind
25.10.2010 00:00 4,6 C 95 % 1012,1 hPa 0,6 l/m NO 0,00 h 0 W/m 1,3 km/h (1 Bft)
25.10.2010 01:00 4,6 C 96 % 1012,2 hPa 0,2 l/m N 0,00 h 0 W/m 1,7 km/h (1 Bft)
25.10.2010 02:00 4,4 C 95 % 1012,3 hPa 0,0 l/m N 0,00 h 0 W/m 1,9 km/h (1 Bft)
25.10.2010 03:00 4,3 C 96 % 1012,4 hPa 0,2 l/m N-NO 0,00 h 0 W/m 3,3 km/h (1 Bft)
25.10.2010 04:00 4,4 C 96 % 1012,6 hPa 0,0 l/m NO 0,00 h 0 W/m 6,4 km/h (2 Bft)
25.10.2010 05:00 4,2 C 96 % 1012,9 hPa 0,0 l/m N-NO 0,00 h 0 W/m 9,9 km/h (2 Bft)
25.10.2010 06:00 3,9 C 96 % 1013,4 hPa 0,0 l/m N-NO 0,00 h 0 W/m 8,7 km/h (2 Bft)
25.10.2010 07:00 3,6 C 95 % 1014,2 hPa 0,0 l/m N-NO 0,00 h 0 W/m 12,9 km/h (3 Bft)
25.10.2010 08:00 3,4 C 95 % 1015,1 hPa 0,0 l/m N-NO 0,00 h 11 W/m 13,7 km/h (3 Bft)
25.10.2010 09:00 3,3 C 95 % 1016,4 hPa 0,0 l/m NO 0,00 h 32 W/m 14,4 km/h (3 Bft)
25.10.2010 10:00 3,6 C 94 % 1016,9 hPa 0,0 l/m NO 0,00 h 75 W/m 16,9 km/h (3 Bft)
25.10.2010 11:00 4,0 C 91 % 1017,5 hPa 0,0 l/m N-NO 0,00 h 112 W/m 17,6 km/h (3 Bft)
25.10.2010 12:00 4,5 C 89 % 1018,2 hPa 0,0 l/m O-NO 0,00 h 125 W/m 18,0 km/h (3 Bft)
25.10.2010 13:00 4,7 C 87 % 1018,5 hPa 0,0 l/m NO 0,00 h 120 W/m 17,7 km/h (3 Bft)
25.10.2010 14:00 5,2 C 83 % 1018,9 hPa 0,0 l/m NO 0,00 h 123 W/m 18,2 km/h (3 Bft)
25.10.2010 15:00 4,7 C 82 % 1019,3 hPa 0,0 l/m O 0,00 h 83 W/m 19,6 km/h (3 Bft)
25.10.2010 16:00 4,7 C 80 % 1019,8 hPa 0,0 l/m O-NO 0,00 h 58 W/m 17,8 km/h (3 Bft)
25.10.2010 17:00 4,4 C 81 % 1020,3 hPa 0,0 l/m N-NO 0,00 h 17 W/m 15,0 km/h (3 Bft)
25.10.2010 18:00 4,0 C 83 % 1021,2 hPa 0,0 l/m NO 0,00 h 5 W/m 12,7 km/h (3 Bft)
25.10.2010 19:00 3,7 C 84 % 1022,1 hPa 0,0 l/m O-NO 0,00 h 0 W/m 13,3 km/h (3 Bft)
25.10.2010 20:00 3,5 C 86 % 1022,6 hPa 0,0 l/m NO 0,00 h 0 W/m 12,4 km/h (3 Bft)
25.10.2010 21:00 3,1 C 88 % 1023,1 hPa 0,0 l/m NO 0,00 h 0 W/m 10,2 km/h (2 Bft)
25.10.2010 22:00 2,5 C 90 % 1023,7 hPa 0,0 l/m N-NO 0,00 h 0 W/m 6,8 km/h (2 Bft)
25.10.2010 23:00 2,0 C 92 % 1024,3 hPa 0,0 l/m N-NO 0,00 h 0 W/m 6,8 km/h (2 Bft)
26.10.2010 00:00 1,8 C 93 % 1024,6 hPa 0,0 l/m N-NO 0,00 h 0 W/m 5,2 km/h (1 Bft)
26.10.2010 01:00 1,3 C 94 % 1024,9 hPa 0,0 l/m N 0,00 h 0 W/m 7,5 km/h (2 Bft)
26.10.2010 02:00 1,5 C 95 % 1025,1 hPa 0,0 l/m N-NW 0,00 h 0 W/m 5,2 km/h (1 Bft)
26.10.2010 03:00 0,8 C 94 % 1025,3 hPa 0,0 l/m N-NW 0,00 h 0 W/m 3,5 km/h (1 Bft)
26.10.2010 04:00 0,0 C 94 % 1025,4 hPa 0,0 l/m N-NW 0,00 h 0 W/m 4,4 km/h (1 Bft)
26.10.2010 05:00 -0,1 C 95 % 1026,2 hPa 0,0 l/m N-NO 0,00 h 0 W/m 6,1 km/h (2 Bft)
26.10.2010 06:00 -0,1 C 96 % 1026,4 hPa 0,0 l/m N 0,00 h 0 W/m 2,3 km/h (1 Bft)
26.10.2010 07:00 -0,6 C 95 % 1027,0 hPa 0,0 l/m N 0,00 h 0 W/m 2,0 km/h (1 Bft)
26.10.2010 08:00 -0,7 C 96 % 1027,5 hPa 0,0 l/m N-NO 0,00 h 24 W/m 3,1 km/h (1 Bft)
26.10.2010 09:00 0,2 C 97 % 1028,0 hPa 0,0 l/m N-NO 0,00 h 44 W/m 7,5 km/h (2 Bft)
26.10.2010 10:00 2,1 C 94 % 1028,5 hPa 0,0 l/m N-NO 0,00 h 67 W/m 8,7 km/h (2 Bft)
26.10.2010 11:00 4,0 C 86 % 1028,8 hPa 0,2 l/m NO 0,17 h 153 W/m 10,9 km/h (2 Bft)
26.10.2010 12:00 5,3 C 80 % 1028,8 hPa 0,0 l/m N-NO 0,67 h 437 W/m 12,4 km/h (3 Bft)
26.10.2010 13:00 6,0 C 73 % 1028,7 hPa 0,0 l/m O-NO 0,25 h 271 W/m 12,5 km/h (3 Bft)
26.10.2010 14:00 6,6 C 68 % 1028,5 hPa 0,0 l/m O-NO 0,58 h 361 W/m 14,1 km/h (3 Bft)
26.10.2010 15:00 7,1 C 64 % 1028,4 hPa 0,0 l/m O 0,58 h 246 W/m 14,1 km/h (3 Bft)
26.10.2010 16:00 6,9 C 63 % 1028,3 hPa 0,0 l/m O-SO 0,58 h 132 W/m 12,6 km/h (3 Bft)
26.10.2010 17:00 6,1 C 66 % 1028,3 hPa 0,0 l/m O-SO 0,00 h 31 W/m 9,3 km/h (2 Bft)
26.10.2010 18:00 3,8 C 77 % 1028,6 hPa 0,0 l/m O 0,00 h 7 W/m 1,6 km/h (1 Bft)
26.10.2010 19:00 1,8 C 86 % 1028,9 hPa 0,0 l/m N 0,00 h 0 W/m 1,2 km/h (1 Bft)
26.10.2010 20:00 1,4 C 87 % 1028,9 hPa 0,0 l/m N 0,00 h 0 W/m 0,3 km/h (0 Bft)
26.10.2010 21:00 0,8 C 88 % 1029,0 hPa 0,0 l/m N 0,00 h 0 W/m 0,7 km/h (0 Bft)
26.10.2010 22:00 0,2 C 90 % 1028,9 hPa 0,0 l/m N 0,00 h 0 W/m 0,9 km/h (0 Bft)
26.10.2010 23:00 -0,0 C 91 % 1028,8 hPa 0,0 l/m N 0,00 h 0 W/m 0,3 km/h (0 Bft)
27.10.2010 00:00 0,3 C 94 % 1028,5 hPa 0,0 l/m N 0,00 h 0 W/m 0,3 km/h (0 Bft)
27.10.2010 01:00 0,8 C 94 % 1028,1 hPa 0,0 l/m N 0,00 h 0 W/m 1,3 km/h (1 Bft)
27.10.2010 02:00 0,5 C 92 % 1028,0 hPa 0,0 l/m N-NW 0,00 h 0 W/m 1,5 km/h (1 Bft)
27.10.2010 03:00 -0,2 C 93 % 1028,0 hPa 0,0 l/m N-NW 0,00 h 0 W/m 5,7 km/h (1 Bft)
27.10.2010 04:00 -0,5 C 93 % 1028,0 hPa 0,0 l/m N 0,00 h 0 W/m 2,5 km/h (1 Bft)
27.10.2010 05:00 -1,0 C 93 % 1027,9 hPa 0,0 l/m N 0,00 h 0 W/m 0,4 km/h (0 Bft)
27.10.2010 06:00 -1,4 C 93 % 1027,7 hPa 0,0 l/m N 0,00 h 0 W/m 0,8 km/h (0 Bft)
27.10.2010 07:00 -1,6 C 94 % 1027,5 hPa 0,0 l/m N 0,00 h 7 W/m 1,9 km/h (1 Bft)
27.10.2010 08:00 -1,5 C 95 % 1027,9 hPa 0,0 l/m N 0,25 h 37 W/m 0,4 km/h (0 Bft)
27.10.2010 09:00 -0,5 C 96 % 1028,0 hPa 0,0 l/m N 0,00 h 53 W/m 0,7 km/h (0 Bft)
27.10.2010 10:00 2,0 C 90 % 1027,8 hPa 0,0 l/m N-NW 0,00 h 63 W/m 2,4 km/h (1 Bft)
27.10.2010 11:00 4,0 C 82 % 1027,7 hPa 0,0 l/m N-NW 0,42 h 251 W/m 3,9 km/h (1 Bft)
27.10.2010 12:00 6,3 C 70 % 1027,4 hPa 0,0 l/m S-SO 0,83 h 405 W/m 6,8 km/h (2 Bft)
27.10.2010 13:00 7,8 C 60 % 1026,7 hPa 0,0 l/m SO 1,00 h 469 W/m 8,0 km/h (2 Bft)
27.10.2010 14:00 8,6 C 56 % 1026,1 hPa 0,0 l/m SW 1,00 h 420 W/m 7,1 km/h (2 Bft)
27.10.2010 15:00 9,1 C 56 % 1025,6 hPa 0,0 l/m SW 0,75 h 263 W/m 5,3 km/h (1 Bft)
27.10.2010 16:00 8,9 C 56 % 1025,3 hPa 0,0 l/m N 0,25 h 121 W/m 1,3 km/h (1 Bft)
27.10.2010 17:00 8,5 C 59 % 1025,1 hPa 0,0 l/m SW 0,75 h 58 W/m 1,7 km/h (1 Bft)
27.10.2010 18:00 6,4 C 72 % 1025,3 hPa 0,0 l/m N 0,08 h 9 W/m 0,9 km/h (0 Bft)
27.10.2010 19:00 4,2 C 81 % 1025,5 hPa 0,0 l/m N 0,00 h 0 W/m 0,0 km/h (0 Bft)
27.10.2010 20:00 3,6 C 84 % 1025,2 hPa 0,0 l/m N 0,00 h 0 W/m 0,0 km/h (0 Bft)
27.10.2010 21:00 2,5 C 88 % 1025,1 hPa 0,0 l/m N 0,00 h 0 W/m 0,0 km/h (0 Bft)
27.10.2010 22:00 2,2 C 89 % 1025,3 hPa 0,0 l/m N 0,00 h 0 W/m 0,0 km/h (0 Bft)
27.10.2010 23:00 2,2 C 89 % 1025,2 hPa 0,0 l/m N 0,00 h 0 W/m 0,3 km/h (0 Bft)
28.10.2010 00:00 2,0 C 91 % 1025,4 hPa 0,0 l/m N 0,00 h 0 W/m 0,1 km/h (0 Bft)
28.10.2010 01:00 2,4 C 93 % 1025,1 hPa 0,0 l/m N 0,00 h 0 W/m 0,9 km/h (0 Bft)
28.10.2010 02:00 2,6 C 93 % 1024,4 hPa 0,0 l/m N 0,00 h 0 W/m 1,1 km/h (0 Bft)
28.10.2010 03:00 2,7 C 93 % 1023,9 hPa 0,0 l/m SW 0,00 h 0 W/m 3,2 km/h (1 Bft)
28.10.2010 04:00 3,4 C 95 % 1023,7 hPa 0,0 l/m SW 0,00 h 0 W/m 5,5 km/h (1 Bft)
28.10.2010 05:00 4,2 C 93 % 1023,6 hPa 0,0 l/m N 0,00 h 0 W/m 2,5 km/h (1 Bft)
28.10.2010 06:00 4,0 C 93 % 1023,5 hPa 0,0 l/m N 0,00 h 0 W/m 2,4 km/h (1 Bft)
28.10.2010 07:00 3,8 C 94 % 1023,5 hPa 0,0 l/m N 0,00 h 0 W/m 1,5 km/h (1 Bft)
28.10.2010 08:00 4,0 C 94 % 1023,6 hPa 0,0 l/m SW 0,00 h 19 W/m 6,1 km/h (2 Bft)
28.10.2010 09:00 5,0 C 90 % 1023,9 hPa 0,0 l/m SW 0,17 h 105 W/m 6,9 km/h (2 Bft)
28.10.2010 10:00 7,0 C 84 % 1024,3 hPa 0,0 l/m S-SW 0,00 h 105 W/m 6,5 km/h (2 Bft)
28.10.2010 11:00 8,3 C 82 % 1024,2 hPa 0,0 l/m S 0,17 h 241 W/m 9,4 km/h (2 Bft)
28.10.2010 12:00 9,9 C 76 % 1024,1 hPa 0,0 l/m S 0,67 h 323 W/m 10,1 km/h (2 Bft)
28.10.2010 13:00 11,6 C 69 % 1023,3 hPa 0,0 l/m SW 0,92 h 448 W/m 12,4 km/h (3 Bft)
28.10.2010 14:00 12,2 C 65 % 1022,6 hPa 0,0 l/m SW 0,92 h 365 W/m 14,2 km/h (3 Bft)
28.10.2010 15:00 12,4 C 65 % 1022,3 hPa 0,0 l/m S 0,17 h 176 W/m 9,9 km/h (2 Bft)
28.10.2010 16:00 12,0 C 57 % 1022,1 hPa 0,0 l/m SW 0,00 h 88 W/m 9,0 km/h (2 Bft)
28.10.2010 17:00 11,3 C 55 % 1021,9 hPa 0,0 l/m S-SW 0,00 h 32 W/m 6,4 km/h (2 Bft)
28.10.2010 18:00 10,0 C 62 % 1022,2 hPa 0,0 l/m N 0,00 h 5 W/m 1,3 km/h (1 Bft)
28.10.2010 19:00 7,2 C 76 % 1022,4 hPa 0,0 l/m N 0,00 h 0 W/m 0,0 km/h (0 Bft)
28.10.2010 20:00 6,2 C 79 % 1022,3 hPa 0,0 l/m N 0,00 h 0 W/m 0,0 km/h (0 Bft)
28.10.2010 21:00 5,2 C 82 % 1022,1 hPa 0,0 l/m N 0,00 h 0 W/m 0,0 km/h (0 Bft)
28.10.2010 22:00 5,0 C 87 % 1022,2 hPa 0,0 l/m N 0,00 h 0 W/m 0,0 km/h (0 Bft)
28.10.2010 23:00 5,7 C 88 % 1022,0 hPa 0,0 l/m N 0,00 h 0 W/m 0,1 km/h (0 Bft)
29.10.2010 00:00 6,1 C 88 % 1021,5 hPa 0,0 l/m N 0,00 h 0 W/m 0,5 km/h (0 Bft)
29.10.2010 01:00 6,0 C 88 % 1020,8 hPa 0,0 l/m N 0,00 h 0 W/m 0,1 km/h (0 Bft)
29.10.2010 02:00 5,0 C 88 % 1020,1 hPa 0,0 l/m N 0,00 h 0 W/m 0,0 km/h (0 Bft)
29.10.2010 03:00 3,8 C 91 % 1019,5 hPa 0,0 l/m N 0,00 h 0 W/m 0,0 km/h (0 Bft)
29.10.2010 04:00 3,0 C 91 % 1019,0 hPa 0,0 l/m N 0,00 h 0 W/m 0,1 km/h (0 Bft)
29.10.2010 05:00 2,5 C 92 % 1018,5 hPa 0,0 l/m N 0,00 h 0 W/m 0,0 km/h (0 Bft)
29.10.2010 06:00 2,0 C 93 % 1018,0 hPa 0,0 l/m N 0,00 h 0 W/m 0,0 km/h (0 Bft)
29.10.2010 07:00 1,6 C 93 % 1017,6 hPa 0,0 l/m N 0,00 h 0 W/m 0,0 km/h (0 Bft)
29.10.2010 08:00 1,3 C 93 % 1017,5 hPa 0,0 l/m N 0,00 h 18 W/m 0,0 km/h (0 Bft)
29.10.2010 09:00 2,0 C 96 % 1017,4 hPa 0,0 l/m N 0,00 h 40 W/m 0,3 km/h (0 Bft)
29.10.2010 10:00 5,4 C 94 % 1017,0 hPa 0,0 l/m N 0,00 h 51 W/m 0,0 km/h (0 Bft)
29.10.2010 11:00 9,5 C 82 % 1016,4 hPa 0,0 l/m N 0,42 h 245 W/m 0,0 km/h (0 Bft)
29.10.2010 12:00 12,3 C 68 % 1015,5 hPa 0,0 l/m S 0,58 h 354 W/m 5,9 km/h (2 Bft)
29.10.2010 13:00 14,1 C 62 % 1014,5 hPa 0,0 l/m SW 1,00 h 423 W/m 6,3 km/h (2 Bft)
29.10.2010 14:00 15,7 C 56 % 1013,2 hPa 0,0 l/m SW 1,00 h 447 W/m 6,1 km/h (2 Bft)
29.10.2010 15:00 16,5 C 56 % 1012,2 hPa 0,0 l/m SW 0,83 h 274 W/m 6,0 km/h (2 Bft)
29.10.2010 16:00 16,4 C 57 % 1011,4 hPa 0,0 l/m SW 0,50 h 120 W/m 2,5 km/h (1 Bft)
29.10.2010 17:00 13,3 C 71 % 1010,8 hPa 0,0 l/m N 0,00 h 21 W/m 0,0 km/h (0 Bft)
29.10.2010 18:00 10,0 C 81 % 1010,7 hPa 0,0 l/m N 0,00 h 0 W/m 0,0 km/h (0 Bft)
29.10.2010 19:00 8,1 C 90 % 1010,5 hPa 0,0 l/m N 0,00 h 0 W/m 0,9 km/h (0 Bft)
29.10.2010 20:00 7,4 C 94 % 1010,0 hPa 0,0 l/m SW 0,00 h 0 W/m 1,3 km/h (1 Bft)
29.10.2010 21:00 6,6 C 96 % 1009,7 hPa 0,0 l/m N 0,00 h 0 W/m 1,1 km/h (0 Bft)
29.10.2010 22:00 6,0 C 96 % 1009,1 hPa 0,0 l/m N 0,00 h 0 W/m 1,2 km/h (1 Bft)
29.10.2010 23:00 5,4 C 97 % 1008,6 hPa 0,0 l/m N-NW 0,00 h 0 W/m 2,8 km/h (1 Bft)
30.10.2010 00:00 5,1 C 97 % 1007,9 hPa 0,0 l/m N 0,00 h 0 W/m 0,7 km/h (0 Bft)
30.10.2010 01:00 4,5 C 96 % 1007,4 hPa 0,0 l/m N-NW 0,00 h 0 W/m 1,9 km/h (1 Bft)
30.10.2010 02:00 4,6 C 97 % 1006,9 hPa 0,0 l/m N-NW 0,00 h 0 W/m 5,1 km/h (1 Bft)
30.10.2010 03:00 4,7 C 97 % 1006,5 hPa 0,0 l/m N-NW 0,00 h 0 W/m 4,4 km/h (1 Bft)
30.10.2010 04:00 4,4 C 97 % 1006,2 hPa 0,0 l/m N-NW 0,00 h 0 W/m 4,3 km/h (1 Bft)
30.10.2010 05:00 4,2 C 97 % 1006,4 hPa 0,0 l/m N-NW 0,00 h 0 W/m 5,1 km/h (1 Bft)
30.10.2010 06:00 3,4 C 96 % 1006,8 hPa 0,0 l/m N-NW 0,00 h 0 W/m 2,8 km/h (1 Bft)
30.10.2010 07:00 3,0 C 96 % 1006,7 hPa 0,0 l/m N 0,00 h 13 W/m 0,5 km/h (0 Bft)
30.10.2010 08:00 3,3 C 97 % 1006,2 hPa 0,0 l/m W-NW 0,17 h 25 W/m 1,3 km/h (1 Bft)
30.10.2010 09:00 5,6 C 97 % 1006,8 hPa 0,0 l/m W-NW 0,00 h 40 W/m 12,1 km/h (2 Bft)
30.10.2010 10:00 7,7 C 92 % 1007,5 hPa 0,0 l/m O-SO 0,00 h 92 W/m 3,6 km/h (1 Bft)
30.10.2010 11:00 8,3 C 91 % 1007,8 hPa 0,0 l/m N-NW 0,00 h 90 W/m 2,5 km/h (1 Bft)
30.10.2010 12:00 8,9 C 89 % 1007,7 hPa 0,0 l/m N 0,00 h 140 W/m 0,7 km/h (0 Bft)
30.10.2010 13:00 10,2 C 84 % 1007,2 hPa 0,0 l/m N-NW 0,08 h 198 W/m 1,5 km/h (1 Bft)
30.10.2010 14:00 12,4 C 74 % 1006,9 hPa 0,0 l/m N-NW 0,67 h 349 W/m 2,7 km/h (1 Bft)
30.10.2010 15:00 14,2 C 64 % 1006,9 hPa 0,0 l/m NO 0,50 h 189 W/m 5,6 km/h (1 Bft)
30.10.2010 16:00 13,0 C 72 % 1007,0 hPa 0,0 l/m N-NO 0,08 h 65 W/m 3,6 km/h (1 Bft)
30.10.2010 17:00 11,8 C 80 % 1007,0 hPa 0,0 l/m N-NO 0,42 h 47 W/m 0,9 km/h (0 Bft)
30.10.2010 18:00 9,9 C 87 % 1007,1 hPa 0,0 l/m N 0,00 h 0 W/m 2,5 km/h (1 Bft)
30.10.2010 19:00 8,9 C 90 % 1006,8 hPa 0,0 l/m N-NO 0,00 h 0 W/m 2,3 km/h (1 Bft)
30.10.2010 20:00 8,8 C 91 % 1006,4 hPa 0,0 l/m N-NO 0,00 h 0 W/m 3,2 km/h (1 Bft)
30.10.2010 21:00 8,6 C 89 % 1005,7 hPa 0,0 l/m N-NO 0,00 h 0 W/m 5,1 km/h (1 Bft)
30.10.2010 22:00 8,3 C 89 % 1005,2 hPa 0,0 l/m N 0,00 h 0 W/m 8,4 km/h (2 Bft)
30.10.2010 23:00 7,8 C 89 % 1004,2 hPa 0,0 l/m N 0,00 h 0 W/m 5,9 km/h (2 Bft)
31.10.2010 00:00 6,8 C 91 % 1003,4 hPa 0,0 l/m N 0,00 h 0 W/m 5,6 km/h (1 Bft)
31.10.2010 01:00 6,3 C 93 % 1002,8 hPa 0,0 l/m N 0,00 h 0 W/m 4,3 km/h (1 Bft)
31.10.2010 02:00 6,0 C 95 % 1001,9 hPa 0,0 l/m N-NO 0,00 h 0 W/m 6,0 km/h (2 Bft)
31.10.2010 03:00 5,9 C 95 % 1000,6 hPa 0,0 l/m N-NO 0,00 h 0 W/m 6,4 km/h (2 Bft)
31.10.2010 04:00 5,6 C 95 % 1000,4 hPa 0,0 l/m N 0,00 h 0 W/m 5,3 km/h (1 Bft)
31.10.2010 05:00 5,3 C 96 % 1000,3 hPa 0,0 l/m N-NO 0,00 h 0 W/m 6,1 km/h (2 Bft)
31.10.2010 06:00 5,0 C 96 % 1000,7 hPa 0,0 l/m N-NW 0,00 h 0 W/m 5,6 km/h (1 Bft)
31.10.2010 07:00 4,8 C 97 % 1001,4 hPa 0,0 l/m N 0,00 h 14 W/m 1,5 km/h (1 Bft)
31.10.2010 08:00 4,6 C 97 % 1002,1 hPa 0,0 l/m S-SO 0,00 h 21 W/m 3,3 km/h (1 Bft)
31.10.2010 09:00 4,5 C 98 % 1002,8 hPa 0,0 l/m N-NW 0,00 h 89 W/m 2,3 km/h (1 Bft)
31.10.2010 10:00 6,1 C 97 % 1003,0 hPa 0,0 l/m N 0,08 h 162 W/m 2,4 km/h (1 Bft)
31.10.2010 11:00 8,9 C 89 % 1002,7 hPa 0,0 l/m O 0,25 h 228 W/m 2,7 km/h (1 Bft)
31.10.2010 12:00 10,6 C 82 % 1002,3 hPa 0,0 l/m O-SO 0,58 h 275 W/m 6,3 km/h (2 Bft)
31.10.2010 13:00 11,9 C 73 % 1001,5 hPa 0,0 l/m NO 0,00 h 172 W/m 6,5 km/h (2 Bft)
31.10.2010 14:00 12,6 C 72 % 1000,8 hPa 0,0 l/m NO 0,00 h 128 W/m 7,6 km/h (2 Bft)
31.10.2010 15:00 12,0 C 78 % 1000,7 hPa 0,0 l/m N-NO 0,00 h 61 W/m 8,8 km/h (2 Bft)
31.10.2010 16:00 10,8 C 85 % 1000,3 hPa 0,0 l/m N-NO 0,00 h 16 W/m 9,9 km/h (2 Bft)
31.10.2010 17:00 10,2 C 85 % 1000,0 hPa 0,0 l/m N-NO 0,00 h 0 W/m 7,2 km/h (2 Bft)
31.10.2010 18:00 9,6 C 88 % 1000,1 hPa 0,0 l/m N-NW 0,00 h 0 W/m 7,0 km/h (2 Bft)
31.10.2010 19:00 9,2 C 89 % 1000,3 hPa 0,0 l/m N 0,00 h 0 W/m 6,1 km/h (2 Bft)
31.10.2010 20:00 8,8 C 90 % 1000,2 hPa 0,0 l/m N 0,00 h 0 W/m 5,9 km/h (2 Bft)
31.10.2010 21:00 8,5 C 92 % 1000,3 hPa 0,0 l/m N-NW 0,00 h 0 W/m 4,3 km/h (1 Bft)
31.10.2010 22:00 8,0 C 93 % 1000,4 hPa 0,0 l/m N-NW 0,00 h 0 W/m 5,3 km/h (1 Bft)
31.10.2010 23:00 7,8 C 94 % 1000,8 hPa 0,0 l/m NW 0,00 h 0 W/m 4,5 km/h (1 Bft)
Min-Datum _ 27.10.10 28.10.10 31.10.10 - - - - 25.10.10
_ Min-Zeit 07:25 16:05 17:40 - - - - 00:05
Minimum _ -1,7 C 47 % 999,9 hPa - - - - 0,0 km/h (0 Bft)
Max-Datum _ 29.10.10 30.10.10 26.10.10 25.10.10 - 26.10.10 26.10.10 30.10.10
_ Max-Zeit 15:55 09:20 19:55 00:00 - 11:40 13:20 09:20
Maximum _ 16,8 C 99 % 1029,1 hPa 0,6 l/m - 0,08 h 663 W/m 38,6 km/h
W-NW (5 Bft)
Durchschnitt _ 5,6 C 86 % 1016,9 hPa #1,2 l/m N-NO #18:20 h 145 W/m 5,0 km/h (1 Bft)